Terminal Aerodrome Forecast
Issued by NWS Bismarck, ND

Home | Current Version | Previous Version | Text Only | Print | Product List | Glossary Off
Versions: 1 2 3 4 5 6 7 8 9 10 11 12 13 14 15

000
FTUS43 KBIS 150500
TAFBIS
TAF
KBIS 150529Z 1506/1606 09005KT P6SM FEW250
     FM151200 12010KT P6SM BKN100
     FM151600 15019G25KT P6SM BKN080
     FM160000 12019G25KT P6SM SCT050 BKN070
     FM160300 08018G23KT 4SM -RASN SCT035 BKN050=

USA.gov is the U.S. government's official web portal to all federal, state and local government web resources and services.